Pagrindinis puslapis
METAR-TAF:

METAR-TAF

Oro uostai :

Suleimanija, Irakas

platuma: 35-33-39N, ilguma: 45-18-52E, Aukštis: 760 m

Dabartinis oras

Ataskaita buvo paskelbta 12 minutes, ne 16:00 UTC
Vėjas 17 kt iš Šiaurės/Šiaurės Rytų
Temperatūra 30°C
Drėgmė 24%
Slėgis 1015 hPa
Matomumas 10 km arba daugiau
nėra debesų žemiau 1500 m ir nėra kamuolinių lietaus debesų

METAR: ORSU 281600Z 03017KT CAVOK 30/07 Q1015

Laikas: 19:12 (16:12 UTC)

Prognozė

Ataskaita buvo paskelbta 5 valandos ir 12 minutes, ne 11:00 UTC
Prognozė galioja nuo 28 metu 12 UTC su 29 metu 12 UTC
Vėjas 16 kt iš Šiaurės Rytų
Matomumas 10 km arba daugiau
nėra debesų žemiau 1500 m ir nėra kamuolinių lietaus debesų
Laikinai
nuo 28 metu 04 UTC su 29 metu 12 UTC

TAF: ORSU 281100Z 2812/2912 05016KT CAVOK TEMPO 2804/2912 G26KT

Orai ataskaitas ir orų prognozės (METAR, TAF).

turimą stotys yra geltonos ir raudonos taškus žemėlapyje.

Perkelti pele per norėdami pamatyti stoties vardą.

Tada spustelėkite, norėdami matyti oro stebėjimo ir prognozės.

Norėdami pakeisti žemėlapį: spustelėkite ant žalios mygtukų su juodo kryžiaus žemyn,; žalią mygtuką su brūkšneliu, jei norite nutolinti; arba žalių rodyklių gretimoms žemėlapius.


METAR-TAF: